X

Important NEWS



New Hub Active

Miami is our new hub! Old members can request transfer via hr@dlxairways.net

Thank you very much and have nice flight.


Deluxe Airways.

X

Tours



Hello again, we created one nice test tour for all pilots to attend. also this is ment to be testing of our tour system

Available Tours

If you find some issues please inform us.

Thank you very much and have nice flight.


Deluxe Airways.

 METAR AND TAF INFORMATION
ArrayMETAR FOR KATL
126074931 3 KATL 140152Z 32012G19KT 9SM -RA BKN007 OVC020 08/06 A3019 RMK AO2 SLP225 P0000 T00780056 KATL 2018-11-14T01:52:00Z 33.63 -84.45 7.8 5.6 320 12 19 9.0 30.188976 1022.5 TRUE -RA IFR 0.005 METAR 296.0 KATL 140052Z 35009G17KT 9SM -RA BKN006 OVC110 08/06 A3014 RMK AO2 RAE15B33 SLP209 P0000 T00830061 KATL 2018-11-14T00:52:00Z 33.63 -84.45 8.3 6.1 350 9 17 9.0 30.138779 1020.9 TRUE -RA IFR 0.005 METAR 296.0

 AIRPORT MAP

 RUNWAY INFORMATION
Runway 08L Runway length 9000 ft Runway width 150 ft
Runway elevation 1015 ft Runway displaced threshold 0 ft Runway heading 90
Runway 26R Runway length 9000 ft Runway width 150 ft
Runway elevation 990 ft Runway displaced threshold 0 ft Runway heading 270
Runway 08R Runway length 10000 ft Runway width 150 ft
Runway elevation 1024 ft Runway displaced threshold 0 ft Runway heading 90
Runway 26L Runway length 10000 ft Runway width 150 ft
Runway elevation 995 ft Runway displaced threshold 0 ft Runway heading 270
Runway 09L Runway length 11890 ft Runway width 150 ft
Runway elevation 1019 ft Runway displaced threshold 0 ft Runway heading 90
Runway 27R Runway length 11890 ft Runway width 150 ft
Runway elevation 978 ft Runway displaced threshold 0 ft Runway heading 270
Runway 09R Runway length 9001 ft Runway width 150 ft
Runway elevation 1026 ft Runway displaced threshold 0 ft Runway heading 90
Runway 27L Runway length 9001 ft Runway width 150 ft
Runway elevation 985 ft Runway displaced threshold 0 ft Runway heading 270
Runway 10 Runway length 9000 ft Runway width 150 ft
Runway elevation 1000 ft Runway displaced threshold 0 ft Runway heading 90
Runway 28 Runway length 9000 ft Runway width 150 ft
Runway elevation 998 ft Runway displaced threshold 0 ft Runway heading 270

 AIRPORT FREQUENCIES
Type APP Name ATLANTA AP Frequency 118.35 MHZ
Type ATIS Name ATIS Frequency 119.65 MHZ
Type CLD Name CLNC DEL Frequency 118.1 MHZ
Type DEP Name ATLANTA DE Frequency 125 MHZ
Type GND Name GND Frequency 121.65 MHZ
Type RDO Name MACON RDO Frequency 116.9 MHZ
Type SFA Name SFA Frequency 30.697 MHZ
Type TWR Name ATLANTA TW Frequency 119.1 MHZ
Type UNIC Name UNICOM Frequency 122.95 MHZ

 AIRPORT NEAR NAVIGATION AIDS
Type NDB Name Catta Frequency 375 KHZ
Type VORTAC Name Atlanta Frequency 116900 KHZ
Type NDB Name Redan Frequency 266 KHZ



Powered by Virtual Airlines Manager [v2.6.2]

Template code change by DeluxeAir